sensor_id;sensor_type;location;lat;lon;timestamp;P1;durP1;ratioP1;P2;durP2;ratioP2
79728;SDS011;69218;52.132;5.418;2023-06-22T00:00:01;7.32;;;4.70;;
79728;SDS011;69218;52.132;5.418;2023-06-22T00:02:29;7.20;;;4.15;;
79728;SDS011;69218;52.132;5.418;2023-06-22T00:04:55;6.85;;;3.83;;
79728;SDS011;69218;52.132;5.418;2023-06-22T00:07:21;7.40;;;4.25;;
79728;SDS011;69218;52.132;5.418;2023-06-22T00:09:48;5.30;;;3.33;;
79728;SDS011;69218;52.132;5.418;2023-06-22T00:12:14;6.57;;;4.07;;
79728;SDS011;69218;52.132;5.418;2023-06-22T00:14:41;8.82;;;5.43;;
79728;SDS011;69218;52.132;5.418;2023-06-22T00:17:07;7.50;;;4.15;;
79728;SDS011;69218;52.132;5.418;2023-06-22T00:19:33;7.20;;;4.60;;
79728;SDS011;69218;52.132;5.418;2023-06-22T00:22:01;8.68;;;4.05;;
79728;SDS011;69218;52.132;5.418;2023-06-22T00:24:29;6.50;;;4.47;;
79728;SDS011;69218;52.132;5.418;2023-06-22T00:26:55;7.13;;;4.90;;
79728;SDS011;69218;52.132;5.418;2023-06-22T00:29:22;6.95;;;4.32;;
79728;SDS011;69218;52.132;5.418;2023-06-22T00:31:51;7.70;;;4.15;;
79728;SDS011;69218;52.132;5.418;2023-06-22T00:34:17;7.43;;;4.38;;
79728;SDS011;69218;52.132;5.418;2023-06-22T00:36:48;5.68;;;3.80;;
79728;SDS011;69218;52.132;5.418;2023-06-22T00:39:17;5.88;;;3.97;;
79728;SDS011;69218;52.132;5.418;2023-06-22T00:41:44;8.23;;;4.28;;
79728;SDS011;69218;52.132;5.418;2023-06-22T00:44:10;7.07;;;4.25;;
79728;SDS011;69218;52.132;5.418;2023-06-22T00:46:37;6.50;;;3.78;;
79728;SDS011;69218;52.132;5.418;2023-06-22T00:49:03;7.72;;;4.43;;
79728;SDS011;69218;52.132;5.418;2023-06-22T00:51:31;7.20;;;3.78;;
79728;SDS011;69218;52.132;5.418;2023-06-22T00:53:58;7.45;;;4.38;;
79728;SDS011;69218;52.132;5.418;2023-06-22T00:56:24;6.35;;;3.63;;
79728;SDS011;69218;52.132;5.418;2023-06-22T00:58:52;8.02;;;4.45;;
79728;SDS011;69218;52.132;5.418;2023-06-22T01:01:20;8.57;;;4.55;;
79728;SDS011;69218;52.132;5.418;2023-06-22T01:03:50;6.25;;;4.18;;
79728;SDS011;69218;52.132;5.418;2023-06-22T01:06:28;8.40;;;4.78;;
79728;SDS011;69218;52.132;5.418;2023-06-22T01:09:19;11.35;;;5.35;;
79728;SDS011;69218;52.132;5.418;2023-06-22T01:11:54;10.52;;;5.90;;
79728;SDS011;69218;52.132;5.418;2023-06-22T01:14:35;7.53;;;4.95;;
79728;SDS011;69218;52.132;5.418;2023-06-22T01:17:08;7.35;;;4.80;;
79728;SDS011;69218;52.132;5.418;2023-06-22T01:19:43;7.05;;;4.55;;
79728;SDS011;69218;52.132;5.418;2023-06-22T01:22:14;8.32;;;5.05;;
79728;SDS011;69218;52.132;5.418;2023-06-22T01:30:45;6.82;;;4.30;;
79728;SDS011;69218;52.132;5.418;2023-06-22T01:33:13;7.25;;;4.40;;
79728;SDS011;69218;52.132;5.418;2023-06-22T01:35:40;7.65;;;4.78;;
79728;SDS011;69218;52.132;5.418;2023-06-22T01:38:13;6.28;;;3.72;;
79728;SDS011;69218;52.132;5.418;2023-06-22T01:40:59;6.25;;;4.00;;
79728;SDS011;69218;52.132;5.418;2023-06-22T01:43:27;7.00;;;4.72;;
79728;SDS011;69218;52.132;5.418;2023-06-22T01:45:55;5.75;;;3.92;;
79728;SDS011;69218;52.132;5.418;2023-06-22T01:48:22;5.70;;;4.00;;
79728;SDS011;69218;52.132;5.418;2023-06-22T01:50:49;6.97;;;4.28;;
79728;SDS011;69218;52.132;5.418;2023-06-22T01:53:16;7.00;;;4.40;;
79728;SDS011;69218;52.132;5.418;2023-06-22T01:55:42;9.23;;;5.65;;
79728;SDS011;69218;52.132;5.418;2023-06-22T01:58:09;7.45;;;4.07;;
79728;SDS011;69218;52.132;5.418;2023-06-22T02:00:37;6.90;;;4.47;;
79728;SDS011;69218;52.132;5.418;2023-06-22T02:03:19;7.95;;;4.70;;
79728;SDS011;69218;52.132;5.418;2023-06-22T02:06:04;8.25;;;4.43;;
79728;SDS011;69218;52.132;5.418;2023-06-22T02:08:38;6.10;;;3.92;;
79728;SDS011;69218;52.132;5.418;2023-06-22T02:11:08;8.93;;;5.10;;
79728;SDS011;69218;52.132;5.418;2023-06-22T02:13:36;8.63;;;4.82;;
79728;SDS011;69218;52.132;5.418;2023-06-22T02:16:04;8.20;;;4.03;;
79728;SDS011;69218;52.132;5.418;2023-06-22T02:18:31;6.60;;;4.28;;
79728;SDS011;69218;52.132;5.418;2023-06-22T02:20:57;8.07;;;4.93;;
79728;SDS011;69218;52.132;5.418;2023-06-22T02:23:24;7.90;;;4.32;;
79728;SDS011;69218;52.132;5.418;2023-06-22T02:25:50;7.00;;;4.55;;
79728;SDS011;69218;52.132;5.418;2023-06-22T02:28:17;7.70;;;4.60;;
79728;SDS011;69218;52.132;5.418;2023-06-22T02:30:43;7.15;;;4.28;;
79728;SDS011;69218;52.132;5.418;2023-06-22T02:33:09;7.70;;;3.83;;
79728;SDS011;69218;52.132;5.418;2023-06-22T02:35:36;7.13;;;4.03;;
79728;SDS011;69218;52.132;5.418;2023-06-22T02:38:03;7.85;;;5.25;;
79728;SDS011;69218;52.132;5.418;2023-06-22T02:40:30;8.80;;;4.90;;
79728;SDS011;69218;52.132;5.418;2023-06-22T02:42:58;8.35;;;5.60;;
79728;SDS011;69218;52.132;5.418;2023-06-22T02:45:28;7.35;;;4.25;;
79728;SDS011;69218;52.132;5.418;2023-06-22T02:47:55;7.82;;;4.82;;
79728;SDS011;69218;52.132;5.418;2023-06-22T02:50:22;7.63;;;4.35;;
79728;SDS011;69218;52.132;5.418;2023-06-22T02:52:49;6.28;;;3.97;;
79728;SDS011;69218;52.132;5.418;2023-06-22T02:55:15;6.53;;;4.13;;
79728;SDS011;69218;52.132;5.418;2023-06-22T02:57:42;8.73;;;4.68;;
79728;SDS011;69218;52.132;5.418;2023-06-22T03:00:10;6.35;;;4.22;;
79728;SDS011;69218;52.132;5.418;2023-06-22T03:02:44;5.68;;;3.85;;
79728;SDS011;69218;52.132;5.418;2023-06-22T03:05:12;7.55;;;4.93;;
79728;SDS011;69218;52.132;5.418;2023-06-22T03:07:40;8.20;;;4.65;;
79728;SDS011;69218;52.132;5.418;2023-06-22T03:10:11;7.18;;;4.22;;
79728;SDS011;69218;52.132;5.418;2023-06-22T03:12:40;6.60;;;3.95;;
79728;SDS011;69218;52.132;5.418;2023-06-22T03:15:08;8.05;;;4.68;;
79728;SDS011;69218;52.132;5.418;2023-06-22T03:17:37;6.35;;;4.10;;
79728;SDS011;69218;52.132;5.418;2023-06-22T03:20:07;8.68;;;4.38;;
79728;SDS011;69218;52.132;5.418;2023-06-22T03:22:36;8.30;;;4.22;;
79728;SDS011;69218;52.132;5.418;2023-06-22T03:25:03;7.05;;;4.82;;
79728;SDS011;69218;52.132;5.418;2023-06-22T03:27:31;7.28;;;4.30;;
79728;SDS011;69218;52.132;5.418;2023-06-22T03:29:58;7.05;;;4.15;;
79728;SDS011;69218;52.132;5.418;2023-06-22T03:32:24;7.35;;;4.47;;
79728;SDS011;69218;52.132;5.418;2023-06-22T03:34:54;7.05;;;4.70;;
79728;SDS011;69218;52.132;5.418;2023-06-22T03:37:26;9.68;;;4.63;;
79728;SDS011;69218;52.132;5.418;2023-06-22T03:39:53;7.20;;;4.25;;
79728;SDS011;69218;52.132;5.418;2023-06-22T03:42:20;9.05;;;5.47;;
79728;SDS011;69218;52.132;5.418;2023-06-22T03:44:46;10.23;;;4.72;;
79728;SDS011;69218;52.132;5.418;2023-06-22T03:47:13;9.60;;;5.78;;
79728;SDS011;69218;52.132;5.418;2023-06-22T03:49:40;8.20;;;4.90;;
79728;SDS011;69218;52.132;5.418;2023-06-22T03:52:06;7.32;;;4.97;;
79728;SDS011;69218;52.132;5.418;2023-06-22T03:54:34;8.80;;;5.68;;
79728;SDS011;69218;52.132;5.418;2023-06-22T03:57:00;11.18;;;5.53;;
79728;SDS011;69218;52.132;5.418;2023-06-22T03:59:27;10.20;;;5.70;;
79728;SDS011;69218;52.132;5.418;2023-06-22T04:01:53;8.55;;;5.18;;
79728;SDS011;69218;52.132;5.418;2023-06-22T04:04:20;8.98;;;4.97;;
79728;SDS011;69218;52.132;5.418;2023-06-22T04:06:47;9.75;;;6.15;;
79728;SDS011;69218;52.132;5.418;2023-06-22T04:09:13;9.55;;;4.78;;
79728;SDS011;69218;52.132;5.418;2023-06-22T04:11:40;9.30;;;5.10;;
79728;SDS011;69218;52.132;5.418;2023-06-22T04:14:06;11.55;;;5.72;;
79728;SDS011;69218;52.132;5.418;2023-06-22T04:16:33;8.15;;;5.13;;
79728;SDS011;69218;52.132;5.418;2023-06-22T04:18:59;9.57;;;5.78;;
79728;SDS011;69218;52.132;5.418;2023-06-22T04:21:26;9.70;;;5.50;;
79728;SDS011;69218;52.132;5.418;2023-06-22T04:23:52;9.00;;;5.13;;
79728;SDS011;69218;52.132;5.418;2023-06-22T04:26:19;12.00;;;6.57;;
79728;SDS011;69218;52.132;5.418;2023-06-22T04:28:47;8.93;;;5.88;;
79728;SDS011;69218;52.132;5.418;2023-06-22T04:31:18;11.73;;;6.72;;
79728;SDS011;69218;52.132;5.418;2023-06-22T04:33:45;11.00;;;6.63;;
79728;SDS011;69218;52.132;5.418;2023-06-22T04:36:11;12.85;;;7.03;;
79728;SDS011;69218;52.132;5.418;2023-06-22T04:38:41;12.68;;;7.30;;
79728;SDS011;69218;52.132;5.418;2023-06-22T04:41:08;14.82;;;7.82;;
79728;SDS011;69218;52.132;5.418;2023-06-22T04:43:40;13.90;;;7.78;;
79728;SDS011;69218;52.132;5.418;2023-06-22T04:46:06;14.15;;;7.28;;
79728;SDS011;69218;52.132;5.418;2023-06-22T04:48:33;12.85;;;8.32;;
79728;SDS011;69218;52.132;5.418;2023-06-22T04:51:00;14.77;;;8.60;;
79728;SDS011;69218;52.132;5.418;2023-06-22T04:53:30;14.60;;;7.90;;
79728;SDS011;69218;52.132;5.418;2023-06-22T04:55:57;14.32;;;8.88;;
79728;SDS011;69218;52.132;5.418;2023-06-22T04:58:24;14.05;;;9.18;;
79728;SDS011;69218;52.132;5.418;2023-06-22T05:00:54;16.13;;;9.45;;
79728;SDS011;69218;52.132;5.418;2023-06-22T05:03:24;16.92;;;9.48;;
79728;SDS011;69218;52.132;5.418;2023-06-22T05:05:52;16.17;;;10.23;;
79728;SDS011;69218;52.132;5.418;2023-06-22T05:08:19;18.52;;;11.05;;
79728;SDS011;69218;52.132;5.418;2023-06-22T05:10:46;16.73;;;10.50;;
79728;SDS011;69218;52.132;5.418;2023-06-22T05:13:29;18.88;;;11.23;;
79728;SDS011;69218;52.132;5.418;2023-06-22T05:15:56;20.75;;;11.25;;
79728;SDS011;69218;52.132;5.418;2023-06-22T05:18:28;19.83;;;11.40;;
79728;SDS011;69218;52.132;5.418;2023-06-22T05:20:55;22.23;;;12.38;;
79728;SDS011;69218;52.132;5.418;2023-06-22T05:23:22;20.27;;;12.50;;
79728;SDS011;69218;52.132;5.418;2023-06-22T05:25:49;21.95;;;13.73;;
79728;SDS011;69218;52.132;5.418;2023-06-22T05:28:15;20.45;;;11.90;;
79728;SDS011;69218;52.132;5.418;2023-06-22T05:30:42;20.33;;;12.00;;
79728;SDS011;69218;52.132;5.418;2023-06-22T05:33:09;19.70;;;12.18;;
79728;SDS011;69218;52.132;5.418;2023-06-22T05:35:35;19.73;;;12.63;;
79728;SDS011;69218;52.132;5.418;2023-06-22T05:38:02;19.25;;;11.05;;
79728;SDS011;69218;52.132;5.418;2023-06-22T05:40:28;23.20;;;13.85;;
79728;SDS011;69218;52.132;5.418;2023-06-22T05:42:55;22.75;;;12.73;;
79728;SDS011;69218;52.132;5.418;2023-06-22T05:45:21;25.92;;;14.07;;
79728;SDS011;69218;52.132;5.418;2023-06-22T05:47:48;20.67;;;13.48;;
79728;SDS011;69218;52.132;5.418;2023-06-22T05:50:15;25.90;;;15.25;;
79728;SDS011;69218;52.132;5.418;2023-06-22T05:52:41;23.85;;;14.55;;
79728;SDS011;69218;52.132;5.418;2023-06-22T05:55:08;20.88;;;13.60;;
79728;SDS011;69218;52.132;5.418;2023-06-22T05:57:34;27.60;;;15.05;;
79728;SDS011;69218;52.132;5.418;2023-06-22T06:00:01;24.33;;;15.20;;
79728;SDS011;69218;52.132;5.418;2023-06-22T06:02:31;23.60;;;14.60;;
79728;SDS011;69218;52.132;5.418;2023-06-22T06:05:00;25.92;;;15.70;;
79728;SDS011;69218;52.132;5.418;2023-06-22T06:07:28;22.13;;;14.57;;
79728;SDS011;69218;52.132;5.418;2023-06-22T06:09:56;27.80;;;16.63;;
79728;SDS011;69218;52.132;5.418;2023-06-22T06:12:22;22.67;;;15.10;;
79728;SDS011;69218;52.132;5.418;2023-06-22T06:14:48;24.30;;;14.88;;
79728;SDS011;69218;52.132;5.418;2023-06-22T06:17:17;24.98;;;15.48;;
79728;SDS011;69218;52.132;5.418;2023-06-22T06:19:44;23.45;;;15.48;;
79728;SDS011;69218;52.132;5.418;2023-06-22T06:22:10;24.95;;;15.48;;
79728;SDS011;69218;52.132;5.418;2023-06-22T06:24:37;23.48;;;15.32;;
79728;SDS011;69218;52.132;5.418;2023-06-22T06:27:03;24.00;;;15.73;;
79728;SDS011;69218;52.132;5.418;2023-06-22T06:29:31;24.35;;;15.98;;
79728;SDS011;69218;52.132;5.418;2023-06-22T06:31:58;25.10;;;15.15;;
79728;SDS011;69218;52.132;5.418;2023-06-22T06:34:24;23.30;;;15.77;;
79728;SDS011;69218;52.132;5.418;2023-06-22T06:36:51;21.63;;;14.80;;
79728;SDS011;69218;52.132;5.418;2023-06-22T06:39:17;21.95;;;14.90;;
79728;SDS011;69218;52.132;5.418;2023-06-22T06:41:44;24.15;;;15.55;;
79728;SDS011;69218;52.132;5.418;2023-06-22T06:44:10;22.27;;;14.65;;
79728;SDS011;69218;52.132;5.418;2023-06-22T06:46:37;26.05;;;16.58;;
79728;SDS011;69218;52.132;5.418;2023-06-22T06:49:04;21.67;;;15.75;;
79728;SDS011;69218;52.132;5.418;2023-06-22T06:51:30;24.75;;;15.75;;
79728;SDS011;69218;52.132;5.418;2023-06-22T06:53:57;23.27;;;15.05;;
79728;SDS011;69218;52.132;5.418;2023-06-22T06:56:24;21.05;;;15.00;;
79728;SDS011;69218;52.132;5.418;2023-06-22T06:58:51;23.77;;;14.85;;
79728;SDS011;69218;52.132;5.418;2023-06-22T07:01:18;21.45;;;14.68;;
79728;SDS011;69218;52.132;5.418;2023-06-22T07:03:48;21.02;;;14.75;;
79728;SDS011;69218;52.132;5.418;2023-06-22T07:06:14;18.90;;;13.00;;
79728;SDS011;69218;52.132;5.418;2023-06-22T07:08:42;21.63;;;13.52;;
79728;SDS011;69218;52.132;5.418;2023-06-22T07:11:09;18.42;;;13.35;;
79728;SDS011;69218;52.132;5.418;2023-06-22T07:13:35;19.85;;;13.18;;
79728;SDS011;69218;52.132;5.418;2023-06-22T07:16:02;19.77;;;13.73;;
79728;SDS011;69218;52.132;5.418;2023-06-22T07:18:28;21.23;;;12.20;;
79728;SDS011;69218;52.132;5.418;2023-06-22T07:20:55;18.73;;;13.20;;
79728;SDS011;69218;52.132;5.418;2023-06-22T07:23:21;19.17;;;12.07;;
79728;SDS011;69218;52.132;5.418;2023-06-22T07:25:48;19.33;;;11.98;;
79728;SDS011;69218;52.132;5.418;2023-06-22T07:28:16;19.33;;;12.57;;
79728;SDS011;69218;52.132;5.418;2023-06-22T07:30:42;19.00;;;12.50;;
79728;SDS011;69218;52.132;5.418;2023-06-22T07:33:09;18.98;;;12.10;;
79728;SDS011;69218;52.132;5.418;2023-06-22T07:35:35;18.25;;;12.07;;
79728;SDS011;69218;52.132;5.418;2023-06-22T07:38:02;15.52;;;11.40;;
79728;SDS011;69218;52.132;5.418;2023-06-22T07:40:31;15.60;;;11.88;;
79728;SDS011;69218;52.132;5.418;2023-06-22T07:42:59;16.67;;;11.40;;
79728;SDS011;69218;52.132;5.418;2023-06-22T07:45:26;15.85;;;11.40;;
79728;SDS011;69218;52.132;5.418;2023-06-22T07:47:52;16.45;;;12.43;;
79728;SDS011;69218;52.132;5.418;2023-06-22T07:50:19;17.42;;;11.98;;
79728;SDS011;69218;52.132;5.418;2023-06-22T07:52:45;15.50;;;11.30;;
79728;SDS011;69218;52.132;5.418;2023-06-22T07:55:13;14.90;;;12.25;;
79728;SDS011;69218;52.132;5.418;2023-06-22T07:57:40;15.30;;;10.93;;
79728;SDS011;69218;52.132;5.418;2023-06-22T08:00:08;18.80;;;12.30;;
79728;SDS011;69218;52.132;5.418;2023-06-22T08:02:43;15.68;;;10.88;;
79728;SDS011;69218;52.132;5.418;2023-06-22T08:05:11;15.65;;;11.15;;
79728;SDS011;69218;52.132;5.418;2023-06-22T08:07:59;14.43;;;10.77;;
79728;SDS011;69218;52.132;5.418;2023-06-22T08:10:25;12.70;;;9.82;;
79728;SDS011;69218;52.132;5.418;2023-06-22T08:12:52;13.23;;;10.30;;
79728;SDS011;69218;52.132;5.418;2023-06-22T08:15:18;15.65;;;10.73;;
79728;SDS011;69218;52.132;5.418;2023-06-22T08:17:45;14.85;;;10.27;;
79728;SDS011;69218;52.132;5.418;2023-06-22T08:20:12;15.30;;;11.35;;
79728;SDS011;69218;52.132;5.418;2023-06-22T08:22:42;14.13;;;10.40;;
79728;SDS011;69218;52.132;5.418;2023-06-22T08:25:10;13.48;;;9.98;;
79728;SDS011;69218;52.132;5.418;2023-06-22T08:27:37;13.60;;;9.90;;
79728;SDS011;69218;52.132;5.418;2023-06-22T08:30:03;13.15;;;9.77;;
79728;SDS011;69218;52.132;5.418;2023-06-22T08:32:31;11.98;;;9.80;;
79728;SDS011;69218;52.132;5.418;2023-06-22T08:34:59;13.02;;;9.32;;
79728;SDS011;69218;52.132;5.418;2023-06-22T08:37:26;12.13;;;9.18;;
79728;SDS011;69218;52.132;5.418;2023-06-22T08:39:58;12.45;;;8.57;;
79728;SDS011;69218;52.132;5.418;2023-06-22T08:42:25;12.43;;;8.55;;
79728;SDS011;69218;52.132;5.418;2023-06-22T08:44:52;11.68;;;9.00;;
79728;SDS011;69218;52.132;5.418;2023-06-22T08:47:18;10.50;;;7.65;;
79728;SDS011;69218;52.132;5.418;2023-06-22T08:49:46;9.45;;;7.18;;
79728;SDS011;69218;52.132;5.418;2023-06-22T08:52:13;11.48;;;8.25;;
79728;SDS011;69218;52.132;5.418;2023-06-22T08:54:39;9.65;;;7.88;;
79728;SDS011;69218;52.132;5.418;2023-06-22T08:57:06;11.88;;;8.38;;
79728;SDS011;69218;52.132;5.418;2023-06-22T08:59:33;13.98;;;7.50;;
79728;SDS011;69218;52.132;5.418;2023-06-22T09:01:59;9.90;;;6.00;;
79728;SDS011;69218;52.132;5.418;2023-06-22T09:04:26;9.20;;;5.90;;
79728;SDS011;69218;52.132;5.418;2023-06-22T09:06:53;7.40;;;5.55;;
79728;SDS011;69218;52.132;5.418;2023-06-22T09:09:20;7.97;;;5.43;;
79728;SDS011;69218;52.132;5.418;2023-06-22T09:11:47;7.78;;;6.35;;
79728;SDS011;69218;52.132;5.418;2023-06-22T09:14:14;14.98;;;5.93;;
79728;SDS011;69218;52.132;5.418;2023-06-22T09:16:40;8.52;;;5.47;;
79728;SDS011;69218;52.132;5.418;2023-06-22T09:19:07;7.32;;;5.20;;
79728;SDS011;69218;52.132;5.418;2023-06-22T09:21:33;6.90;;;5.35;;
79728;SDS011;69218;52.132;5.418;2023-06-22T09:24:00;6.82;;;4.80;;
79728;SDS011;69218;52.132;5.418;2023-06-22T09:26:26;6.65;;;5.57;;
79728;SDS011;69218;52.132;5.418;2023-06-22T09:28:53;8.77;;;6.18;;
79728;SDS011;69218;52.132;5.418;2023-06-22T09:31:20;8.18;;;4.68;;
79728;SDS011;69218;52.132;5.418;2023-06-22T09:33:56;7.50;;;5.15;;
79728;SDS011;69218;52.132;5.418;2023-06-22T09:36:22;8.77;;;5.40;;
79728;SDS011;69218;52.132;5.418;2023-06-22T09:38:49;6.82;;;4.05;;
79728;SDS011;69218;52.132;5.418;2023-06-22T09:41:21;5.93;;;4.88;;
79728;SDS011;69218;52.132;5.418;2023-06-22T09:43:48;5.97;;;3.88;;
79728;SDS011;69218;52.132;5.418;2023-06-22T09:46:15;5.70;;;3.30;;
79728;SDS011;69218;52.132;5.418;2023-06-22T09:48:42;6.05;;;4.22;;
79728;SDS011;69218;52.132;5.418;2023-06-22T09:51:09;7.07;;;4.38;;
79728;SDS011;69218;52.132;5.418;2023-06-22T09:53:36;9.00;;;5.07;;
79728;SDS011;69218;52.132;5.418;2023-06-22T09:56:03;7.15;;;4.97;;
79728;SDS011;69218;52.132;5.418;2023-06-22T09:58:30;7.18;;;5.22;;
79728;SDS011;69218;52.132;5.418;2023-06-22T10:00:56;8.35;;;5.32;;
79728;SDS011;69218;52.132;5.418;2023-06-22T10:03:23;6.97;;;5.10;;
79728;SDS011;69218;52.132;5.418;2023-06-22T10:05:52;8.40;;;5.40;;
79728;SDS011;69218;52.132;5.418;2023-06-22T10:08:18;8.25;;;5.50;;
79728;SDS011;69218;52.132;5.418;2023-06-22T10:10:45;7.22;;;4.90;;
79728;SDS011;69218;52.132;5.418;2023-06-22T10:13:11;6.93;;;4.32;;
79728;SDS011;69218;52.132;5.418;2023-06-22T10:15:38;7.47;;;3.67;;
79728;SDS011;69218;52.132;5.418;2023-06-22T10:18:05;6.40;;;3.65;;
79728;SDS011;69218;52.132;5.418;2023-06-22T10:20:32;4.63;;;3.40;;
79728;SDS011;69218;52.132;5.418;2023-06-22T10:22:58;7.28;;;3.70;;
79728;SDS011;69218;52.132;5.418;2023-06-22T10:25:26;5.82;;;3.25;;
79728;SDS011;69218;52.132;5.418;2023-06-22T10:27:53;5.70;;;3.13;;
79728;SDS011;69218;52.132;5.418;2023-06-22T10:30:20;7.93;;;5.18;;
79728;SDS011;69218;52.132;5.418;2023-06-22T10:32:47;7.35;;;3.95;;
79728;SDS011;69218;52.132;5.418;2023-06-22T10:35:14;6.00;;;3.60;;
79728;SDS011;69218;52.132;5.418;2023-06-22T10:40:13;6.47;;;4.10;;
79728;SDS011;69218;52.132;5.418;2023-06-22T10:42:41;8.18;;;4.60;;
79728;SDS011;69218;52.132;5.418;2023-06-22T10:45:08;7.55;;;4.20;;
79728;SDS011;69218;52.132;5.418;2023-06-22T10:47:36;5.63;;;4.78;;
79728;SDS011;69218;52.132;5.418;2023-06-22T10:50:03;6.30;;;4.43;;
79728;SDS011;69218;52.132;5.418;2023-06-22T10:52:29;8.00;;;4.63;;
79728;SDS011;69218;52.132;5.418;2023-06-22T10:54:56;5.95;;;3.80;;
79728;SDS011;69218;52.132;5.418;2023-06-22T10:57:23;6.40;;;4.80;;
79728;SDS011;69218;52.132;5.418;2023-06-22T10:59:49;7.43;;;5.25;;
79728;SDS011;69218;52.132;5.418;2023-06-22T11:02:16;10.38;;;4.63;;
79728;SDS011;69218;52.132;5.418;2023-06-22T11:04:43;6.03;;;3.92;;
79728;SDS011;69218;52.132;5.418;2023-06-22T11:07:09;5.57;;;4.30;;
79728;SDS011;69218;52.132;5.418;2023-06-22T11:09:36;7.55;;;5.78;;
79728;SDS011;69218;52.132;5.418;2023-06-22T11:12:05;6.80;;;4.63;;
79728;SDS011;69218;52.132;5.418;2023-06-22T11:14:32;7.57;;;5.03;;
79728;SDS011;69218;52.132;5.418;2023-06-22T11:17:00;8.50;;;4.45;;
79728;SDS011;69218;52.132;5.418;2023-06-22T11:19:29;5.75;;;4.30;;
79728;SDS011;69218;52.132;5.418;2023-06-22T11:21:56;6.55;;;4.38;;
79728;SDS011;69218;52.132;5.418;2023-06-22T11:24:22;8.18;;;5.10;;
79728;SDS011;69218;52.132;5.418;2023-06-22T11:26:49;6.70;;;4.13;;
79728;SDS011;69218;52.132;5.418;2023-06-22T11:29:15;7.63;;;5.15;;
79728;SDS011;69218;52.132;5.418;2023-06-22T11:32:02;9.38;;;5.65;;
79728;SDS011;69218;52.132;5.418;2023-06-22T11:34:29;8.18;;;5.82;;
79728;SDS011;69218;52.132;5.418;2023-06-22T11:36:55;9.35;;;5.80;;
79728;SDS011;69218;52.132;5.418;2023-06-22T11:39:22;9.98;;;7.05;;
79728;SDS011;69218;52.132;5.418;2023-06-22T11:42:06;8.38;;;6.50;;
79728;SDS011;69218;52.132;5.418;2023-06-22T11:44:33;9.20;;;7.03;;
79728;SDS011;69218;52.132;5.418;2023-06-22T11:47:00;10.55;;;6.80;;
79728;SDS011;69218;52.132;5.418;2023-06-22T11:49:27;12.45;;;8.20;;
79728;SDS011;69218;52.132;5.418;2023-06-22T11:51:53;10.43;;;7.55;;
79728;SDS011;69218;52.132;5.418;2023-06-22T11:54:21;11.27;;;8.18;;
79728;SDS011;69218;52.132;5.418;2023-06-22T11:56:48;8.23;;;6.82;;
79728;SDS011;69218;52.132;5.418;2023-06-22T11:59:14;9.40;;;6.35;;
79728;SDS011;69218;52.132;5.418;2023-06-22T12:01:41;10.82;;;7.40;;
79728;SDS011;69218;52.132;5.418;2023-06-22T12:04:07;11.07;;;7.75;;
79728;SDS011;69218;52.132;5.418;2023-06-22T12:06:37;12.52;;;8.25;;
79728;SDS011;69218;52.132;5.418;2023-06-22T12:09:07;11.50;;;7.47;;
79728;SDS011;69218;52.132;5.418;2023-06-22T12:11:34;10.40;;;8.73;;
79728;SDS011;69218;52.132;5.418;2023-06-22T12:14:00;10.75;;;8.10;;
79728;SDS011;69218;52.132;5.418;2023-06-22T12:16:28;11.00;;;7.13;;
79728;SDS011;69218;52.132;5.418;2023-06-22T12:18:55;11.07;;;7.88;;
79728;SDS011;69218;52.132;5.418;2023-06-22T12:21:21;11.60;;;8.20;;
79728;SDS011;69218;52.132;5.418;2023-06-22T12:23:48;11.82;;;8.90;;
79728;SDS011;69218;52.132;5.418;2023-06-22T12:26:15;10.60;;;7.25;;
79728;SDS011;69218;52.132;5.418;2023-06-22T12:28:42;12.45;;;8.48;;
79728;SDS011;69218;52.132;5.418;2023-06-22T12:31:08;11.38;;;7.95;;
79728;SDS011;69218;52.132;5.418;2023-06-22T12:33:35;12.30;;;9.00;;
79728;SDS011;69218;52.132;5.418;2023-06-22T12:36:01;11.75;;;8.15;;
79728;SDS011;69218;52.132;5.418;2023-06-22T12:38:29;13.40;;;8.98;;
79728;SDS011;69218;52.132;5.418;2023-06-22T12:40:55;13.75;;;9.15;;
79728;SDS011;69218;52.132;5.418;2023-06-22T12:43:22;11.35;;;8.57;;
79728;SDS011;69218;52.132;5.418;2023-06-22T12:45:48;11.45;;;8.15;;
79728;SDS011;69218;52.132;5.418;2023-06-22T12:48:15;10.35;;;8.00;;
79728;SDS011;69218;52.132;5.418;2023-06-22T12:50:43;11.02;;;7.97;;
79728;SDS011;69218;52.132;5.418;2023-06-22T12:53:09;10.98;;;7.57;;
79728;SDS011;69218;52.132;5.418;2023-06-22T12:55:36;7.55;;;6.63;;
79728;SDS011;69218;52.132;5.418;2023-06-22T12:58:02;10.15;;;7.72;;
79728;SDS011;69218;52.132;5.418;2023-06-22T13:00:28;8.45;;;6.75;;
79728;SDS011;69218;52.132;5.418;2023-06-22T13:02:55;9.30;;;6.32;;
79728;SDS011;69218;52.132;5.418;2023-06-22T13:05:22;8.93;;;6.68;;
79728;SDS011;69218;52.132;5.418;2023-06-22T13:07:49;11.57;;;6.60;;
79728;SDS011;69218;52.132;5.418;2023-06-22T13:10:15;10.05;;;6.80;;
79728;SDS011;69218;52.132;5.418;2023-06-22T13:12:42;9.32;;;7.05;;
79728;SDS011;69218;52.132;5.418;2023-06-22T13:15:08;9.18;;;6.55;;
79728;SDS011;69218;52.132;5.418;2023-06-22T13:17:35;9.93;;;6.25;;
79728;SDS011;69218;52.132;5.418;2023-06-22T13:20:02;9.13;;;6.68;;
79728;SDS011;69218;52.132;5.418;2023-06-22T13:22:33;8.88;;;6.85;;
79728;SDS011;69218;52.132;5.418;2023-06-22T13:25:09;11.10;;;6.35;;
79728;SDS011;69218;52.132;5.418;2023-06-22T13:27:39;10.43;;;6.90;;
79728;SDS011;69218;52.132;5.418;2023-06-22T13:30:07;12.55;;;7.93;;
79728;SDS011;69218;52.132;5.418;2023-06-22T13:32:39;12.07;;;8.35;;
79728;SDS011;69218;52.132;5.418;2023-06-22T13:35:11;11.80;;;8.02;;
79728;SDS011;69218;52.132;5.418;2023-06-22T13:37:38;12.13;;;7.53;;
79728;SDS011;69218;52.132;5.418;2023-06-22T13:40:05;11.07;;;7.60;;
79728;SDS011;69218;52.132;5.418;2023-06-22T13:42:33;11.65;;;8.73;;
79728;SDS011;69218;52.132;5.418;2023-06-22T13:44:59;11.50;;;8.75;;
79728;SDS011;69218;52.132;5.418;2023-06-22T13:47:26;11.40;;;8.52;;
79728;SDS011;69218;52.132;5.418;2023-06-22T13:49:55;10.93;;;8.75;;
79728;SDS011;69218;52.132;5.418;2023-06-22T13:52:23;11.13;;;9.27;;
79728;SDS011;69218;52.132;5.418;2023-06-22T13:54:50;11.82;;;9.32;;
79728;SDS011;69218;52.132;5.418;2023-06-22T13:57:16;12.57;;;8.95;;
79728;SDS011;69218;52.132;5.418;2023-06-22T13:59:43;11.43;;;8.45;;
79728;SDS011;69218;52.132;5.418;2023-06-22T14:02:09;13.15;;;8.10;;
79728;SDS011;69218;52.132;5.418;2023-06-22T14:04:36;12.23;;;9.50;;
79728;SDS011;69218;52.132;5.418;2023-06-22T14:07:02;13.38;;;9.20;;
79728;SDS011;69218;52.132;5.418;2023-06-22T14:09:29;11.77;;;8.60;;
79728;SDS011;69218;52.132;5.418;2023-06-22T14:11:55;13.43;;;9.05;;
79728;SDS011;69218;52.132;5.418;2023-06-22T14:14:22;12.48;;;9.73;;
79728;SDS011;69218;52.132;5.418;2023-06-22T14:16:48;10.63;;;8.95;;
79728;SDS011;69218;52.132;5.418;2023-06-22T14:19:18;12.85;;;8.98;;
79728;SDS011;69218;52.132;5.418;2023-06-22T14:21:45;13.13;;;9.38;;
79728;SDS011;69218;52.132;5.418;2023-06-22T14:24:12;12.43;;;9.32;;
79728;SDS011;69218;52.132;5.418;2023-06-22T14:26:38;12.25;;;8.55;;
79728;SDS011;69218;52.132;5.418;2023-06-22T14:29:05;12.88;;;9.45;;
79728;SDS011;69218;52.132;5.418;2023-06-22T14:31:31;12.68;;;8.40;;
79728;SDS011;69218;52.132;5.418;2023-06-22T14:33:58;13.57;;;8.63;;
79728;SDS011;69218;52.132;5.418;2023-06-22T14:36:25;12.77;;;10.05;;
79728;SDS011;69218;52.132;5.418;2023-06-22T14:38:51;14.27;;;10.57;;
79728;SDS011;69218;52.132;5.418;2023-06-22T14:41:21;12.68;;;9.60;;
79728;SDS011;69218;52.132;5.418;2023-06-22T14:43:49;14.98;;;9.60;;
79728;SDS011;69218;52.132;5.418;2023-06-22T14:46:19;15.02;;;11.07;;
79728;SDS011;69218;52.132;5.418;2023-06-22T14:48:46;11.90;;;8.43;;